createdAt,value
2018-02-19T00:01:29.098Z,64.80
2018-02-19T00:03:57.406Z,64.60
2018-02-19T00:06:25.691Z,64.60
2018-02-19T00:08:54.906Z,64.50
2018-02-19T00:11:24.095Z,64.10
2018-02-19T00:13:52.507Z,63.90
2018-02-19T00:16:20.834Z,65.00
2018-02-19T00:18:49.301Z,65.00
2018-02-19T00:21:17.663Z,64.60
2018-02-19T00:23:46.014Z,64.70
2018-02-19T00:26:14.630Z,64.70
2018-02-19T00:28:42.926Z,65.10
2018-02-19T00:31:11.210Z,65.20
2018-02-19T00:33:40.502Z,64.90
2018-02-19T00:36:09.582Z,64.70
2018-02-19T00:38:38.082Z,64.60
2018-02-19T00:41:06.562Z,65.00
2018-02-19T00:43:35.031Z,64.60
2018-02-19T00:46:03.810Z,65.10
2018-02-19T00:48:33.065Z,65.20
2018-02-19T00:51:02.877Z,64.30
2018-02-19T00:53:31.574Z,64.30
2018-02-19T00:56:01.267Z,64.10
2018-02-19T00:58:31.289Z,64.10
2018-02-19T01:01:00.810Z,63.90
2018-02-19T01:03:29.403Z,63.90
2018-02-19T01:05:57.898Z,63.90
2018-02-19T01:08:26.304Z,63.70
2018-02-19T01:10:54.618Z,63.30
2018-02-19T01:13:22.946Z,64.00
2018-02-19T01:15:52.450Z,64.90
2018-02-19T01:18:21.345Z,64.80
2018-02-19T01:20:50.006Z,64.40
2018-02-19T01:23:19.070Z,65.00
2018-02-19T01:25:48.515Z,66.60
2018-02-19T01:28:16.800Z,65.70
2018-02-19T01:30:45.093Z,66.50
2018-02-19T01:33:13.429Z,66.90
2018-02-19T01:35:41.822Z,65.60
2018-02-19T01:38:10.111Z,64.80
2018-02-19T01:40:38.730Z,66.20
2018-02-19T01:43:07.155Z,67.10
2018-02-19T01:45:35.635Z,67.50
2018-02-19T01:48:04.150Z,68.70
2018-02-19T01:50:32.639Z,68.20
2018-02-19T01:53:01.755Z,66.40
2018-02-19T01:55:30.598Z,65.90
2018-02-19T01:57:59.244Z,64.80
2018-02-19T02:00:27.849Z,65.20
2018-02-19T02:02:56.893Z,65.10
2018-02-19T02:05:25.231Z,65.00
2018-02-19T02:07:53.634Z,64.30
2018-02-19T02:10:23.155Z,64.10
2018-02-19T02:12:52.341Z,64.90
2018-02-19T02:15:20.794Z,64.90
2018-02-19T02:17:50.014Z,63.90
2018-02-19T02:20:18.460Z,63.80
2018-02-19T02:22:47.546Z,63.50
2018-02-19T02:25:15.862Z,63.50
2018-02-19T02:27:44.243Z,64.20
2018-02-19T02:30:12.572Z,64.10
2018-02-19T02:32:40.895Z,63.30
2018-02-19T02:35:09.952Z,64.10
2018-02-19T02:37:38.235Z,64.10
2018-02-19T02:40:06.651Z,63.60
2018-02-19T02:42:35.989Z,64.90
2018-02-19T02:45:04.498Z,64.20
2018-02-19T02:47:33.027Z,64.40
2018-02-19T02:50:01.470Z,64.00
2018-02-19T02:52:30.193Z,63.70
2018-02-19T02:54:58.757Z,63.40
2018-02-19T02:57:28.883Z,62.90
2018-02-19T02:59:57.291Z,62.80
2018-02-19T03:02:25.667Z,63.50
2018-02-19T03:04:53.975Z,63.50
2018-02-19T03:07:22.427Z,63.30
2018-02-19T03:09:51.815Z,63.40
2018-02-19T03:12:20.180Z,63.40
2018-02-19T03:14:48.515Z,64.00
2018-02-19T03:17:16.802Z,64.10
2018-02-19T03:19:46.990Z,64.80
2018-02-19T03:22:15.303Z,64.50
2018-02-19T03:24:45.146Z,65.80
2018-02-19T03:27:14.215Z,65.60
2018-02-19T03:29:42.500Z,65.60
2018-02-19T03:32:10.822Z,65.80
2018-02-19T03:34:39.273Z,65.40
2018-02-19T03:37:07.722Z,66.00
2018-02-19T03:39:36.455Z,65.90
2018-02-19T03:42:04.962Z,65.70
2018-02-19T03:44:33.943Z,65.60
2018-02-19T03:47:02.796Z,64.80
2018-02-19T03:49:31.150Z,65.00
2018-02-19T03:52:00.388Z,65.30
2018-02-19T03:54:29.161Z,66.10
2018-02-19T03:56:57.522Z,66.00
2018-02-19T03:59:25.847Z,65.20
2018-02-19T04:01:54.230Z,64.70
2018-02-19T04:04:22.654Z,65.00
2018-02-19T04:06:51.279Z,65.20
2018-02-19T04:09:19.587Z,64.80
2018-02-19T04:11:47.907Z,64.90
2018-02-19T04:14:16.960Z,64.70
2018-02-19T04:16:45.282Z,64.70
2018-02-19T04:19:13.603Z,64.60
2018-02-19T04:21:41.887Z,64.70
2018-02-19T04:24:10.180Z,64.10
2018-02-19T04:26:38.563Z,64.30
2018-02-19T04:29:07.082Z,64.80
2018-02-19T04:31:36.036Z,64.40
2018-02-19T04:34:06.188Z,64.00
2018-02-19T04:36:34.784Z,64.00
2018-02-19T04:39:04.003Z,64.30
2018-02-19T04:41:32.968Z,64.30
2018-02-19T04:44:02.394Z,63.90
2018-02-19T04:46:33.849Z,63.90
2018-02-19T04:49:03.235Z,65.10
2018-02-19T04:51:31.988Z,65.10
2018-02-19T04:54:00.387Z,64.90
2018-02-19T04:56:29.204Z,64.80
2018-02-19T04:58:57.571Z,64.00
2018-02-19T05:01:25.923Z,64.50
2018-02-19T05:03:54.205Z,64.30
2018-02-19T05:06:22.692Z,65.00
2018-02-19T05:08:51.060Z,64.70
2018-02-19T05:11:19.419Z,64.20
2018-02-19T05:13:47.746Z,64.80
2018-02-19T05:16:16.066Z,64.90
2018-02-19T05:18:44.355Z,65.50
2018-02-19T05:21:13.415Z,65.70
2018-02-19T05:23:41.739Z,65.70
2018-02-19T05:26:10.058Z,65.20
2018-02-19T05:28:40.060Z,66.20
2018-02-19T05:31:08.477Z,66.10
2018-02-19T05:33:36.834Z,66.40
2018-02-19T05:36:05.215Z,66.10
2018-02-19T05:38:34.504Z,66.80
2018-02-19T05:41:03.019Z,66.80
2018-02-19T05:43:31.427Z,67.40
2018-02-19T05:46:00.692Z,67.40
2018-02-19T05:48:29.131Z,67.40
2018-02-19T05:50:57.491Z,67.00
2018-02-19T05:53:27.479Z,66.30
2018-02-19T05:55:55.806Z,66.30
2018-02-19T05:58:24.136Z,66.40
2018-02-19T06:00:53.190Z,67.10
2018-02-19T06:03:21.586Z,66.60
2018-02-19T06:05:49.922Z,66.80
2018-02-19T06:08:18.250Z,67.40
2018-02-19T06:10:46.542Z,67.90
2018-02-19T06:13:14.878Z,67.60
2018-02-19T06:15:43.931Z,68.30
2018-02-19T06:18:12.254Z,68.20
2018-02-19T06:20:40.552Z,68.20
2018-02-19T06:23:08.883Z,68.30
2018-02-19T06:25:37.526Z,68.10
2018-02-19T06:28:06.075Z,68.30
2018-02-19T06:30:34.466Z,67.90
2018-02-19T06:33:02.926Z,68.20
2018-02-19T06:35:32.194Z,68.00
2018-02-19T06:38:00.921Z,68.00
2018-02-19T06:40:29.593Z,68.00
2018-02-19T06:42:57.875Z,67.90
2018-02-19T06:45:26.207Z,67.70
2018-02-19T06:47:54.508Z,67.70
2018-02-19T06:50:23.010Z,67.90
2018-02-19T06:52:51.923Z,68.10
2018-02-19T06:55:20.371Z,67.80
2018-02-19T06:57:48.748Z,67.90
2018-02-19T07:00:17.062Z,67.10
2018-02-19T07:02:45.494Z,67.30
2018-02-19T07:05:13.791Z,67.10
2018-02-19T07:07:42.094Z,66.70
2018-02-19T07:10:10.432Z,66.80
2018-02-19T07:12:39.495Z,66.50
2018-02-19T07:15:07.959Z,66.40
2018-02-19T07:17:36.509Z,66.40
2018-02-19T07:20:05.005Z,66.60
2018-02-19T07:22:33.588Z,66.50
2018-02-19T07:25:02.148Z,66.40
2018-02-19T07:27:30.780Z,66.40
2018-02-19T07:30:00.111Z,66.20
2018-02-19T07:32:28.573Z,66.20
2018-02-19T07:34:57.035Z,65.90
2018-02-19T07:37:25.330Z,66.40
2018-02-19T07:39:54.391Z,66.10
2018-02-19T07:42:22.730Z,66.10
2018-02-19T07:44:52.020Z,65.50
2018-02-19T07:47:21.307Z,65.20
2018-02-19T07:49:50.095Z,65.20
2018-02-19T07:52:18.438Z,65.20
2018-02-19T07:54:46.832Z,64.70
2018-02-19T07:57:15.159Z,64.70
2018-02-19T07:59:43.461Z,65.30
2018-02-19T08:02:11.763Z,64.20
2018-02-19T08:04:40.099Z,63.60
2018-02-19T08:07:08.394Z,63.60
2018-02-19T08:09:36.828Z,64.20
2018-02-19T08:12:06.022Z,63.50
2018-02-19T08:14:34.512Z,63.50
2018-02-19T08:17:03.315Z,63.30
2018-02-19T08:19:31.979Z,62.80
2018-02-19T08:22:00.444Z,63.00
2018-02-19T08:24:30.691Z,62.70
2018-02-19T08:27:00.114Z,62.40
2018-02-19T08:29:28.542Z,62.40
2018-02-19T08:31:57.655Z,62.60
2018-02-19T08:34:25.963Z,62.60
2018-02-19T08:36:54.296Z,63.10
2018-02-19T08:39:23.399Z,62.70
2018-02-19T08:41:52.479Z,63.40
2018-02-19T08:44:20.979Z,62.70
2018-02-19T08:46:49.395Z,62.20
2018-02-19T08:49:18.566Z,61.00
2018-02-19T08:51:46.966Z,60.90
2018-02-19T08:54:16.023Z,60.30
2018-02-19T08:56:44.357Z,60.20
2018-02-19T08:59:12.655Z,60.00
2018-02-19T09:01:40.946Z,59.70
2018-02-19T09:04:09.367Z,59.00
2018-02-19T09:06:37.735Z,58.80
2018-02-19T09:09:06.115Z,58.30
2018-02-19T09:11:34.650Z,58.10
2018-02-19T09:14:03.049Z,58.30
2018-02-19T09:16:31.672Z,57.90
2018-02-19T09:19:01.208Z,58.00
2018-02-19T09:21:30.111Z,57.90
2018-02-19T09:23:58.423Z,58.30
2018-02-19T09:26:27.539Z,57.10
2018-02-19T09:28:55.870Z,57.00
2018-02-19T09:31:24.163Z,56.70
2018-02-19T09:33:52.454Z,56.70
2018-02-19T09:36:20.872Z,56.60
2018-02-19T09:38:49.466Z,56.20
2018-02-19T09:41:17.772Z,55.50
2018-02-19T09:43:46.112Z,55.50
2018-02-19T09:46:15.219Z,56.20
2018-02-19T09:48:43.511Z,56.20
2018-02-19T09:51:11.798Z,56.20
2018-02-19T09:53:40.140Z,56.00
2018-02-19T09:56:08.472Z,55.00
2018-02-19T09:58:36.768Z,55.70
2018-02-19T10:01:05.055Z,54.70
2018-02-19T10:03:34.224Z,54.00
2018-02-19T10:06:02.582Z,54.00
2018-02-19T10:08:31.874Z,53.80
2018-02-19T10:11:00.395Z,53.90
2018-02-19T10:13:28.988Z,54.30
2018-02-19T10:15:57.275Z,53.90
2018-02-19T10:18:25.569Z,54.20
2018-02-19T10:20:54.655Z,53.70
2018-02-19T10:23:22.981Z,53.50
2018-02-19T10:25:51.316Z,54.30
2018-02-19T10:28:19.968Z,53.00
2018-02-19T10:30:48.309Z,53.50
2018-02-19T10:33:16.611Z,52.90
2018-02-19T10:35:45.027Z,52.80
2018-02-19T10:38:13.360Z,51.80
2018-02-19T10:40:42.442Z,52.40
2018-02-19T10:43:10.730Z,52.30
2018-02-19T10:45:39.059Z,52.90
2018-02-19T10:48:07.347Z,52.90
2018-02-19T10:50:36.443Z,52.40
2018-02-19T10:53:04.899Z,52.40
2018-02-19T10:55:33.326Z,52.40
2018-02-19T10:58:01.767Z,53.70
2018-02-19T11:00:35.802Z,52.60
2018-02-19T11:03:04.178Z,52.20
2018-02-19T11:05:32.607Z,52.00
2018-02-19T11:08:01.143Z,51.70
2018-02-19T11:10:29.543Z,52.20
2018-02-19T11:12:58.648Z,51.10
2018-02-19T11:15:27.799Z,50.90
2018-02-19T11:17:56.091Z,50.80
2018-02-19T11:20:24.418Z,50.80
2018-02-19T11:22:53.502Z,50.50
2018-02-19T11:25:21.915Z,49.90
2018-02-19T11:27:50.251Z,50.30
2018-02-19T11:30:19.504Z,49.50
2018-02-19T11:32:47.834Z,49.40
2018-02-19T11:35:16.191Z,48.70
2018-02-19T11:37:45.243Z,49.90
2018-02-19T11:40:13.571Z,49.90
2018-02-19T11:42:41.858Z,48.00
2018-02-19T11:45:10.179Z,46.90
2018-02-19T11:47:38.505Z,46.90
2018-02-19T11:50:06.827Z,47.30
2018-02-19T11:52:35.871Z,48.90
2018-02-19T11:55:04.195Z,48.70
2018-02-19T11:57:32.581Z,47.80
2018-02-19T12:00:01.139Z,48.00
2018-02-19T12:02:29.883Z,47.60
2018-02-19T12:04:58.375Z,47.70
2018-02-19T12:07:26.695Z,48.60
2018-02-19T12:09:55.118Z,48.40
2018-02-19T12:12:23.418Z,47.10
2018-02-19T12:14:51.715Z,47.30
2018-02-19T12:17:20.079Z,48.10
2018-02-19T12:19:49.571Z,49.50
2018-02-19T12:22:17.965Z,49.50
2018-02-19T12:24:46.267Z,49.70
2018-02-19T12:27:14.603Z,49.30
2018-02-19T12:29:42.927Z,50.70
2018-02-19T12:32:12.012Z,50.20
2018-02-19T12:34:40.344Z,50.10
2018-02-19T12:37:09.394Z,51.30
2018-02-19T12:39:37.735Z,51.30
2018-02-19T12:42:06.091Z,50.90
2018-02-19T12:44:34.447Z,50.90
2018-02-19T12:47:03.028Z,50.40
2018-02-19T12:49:31.486Z,50.90
2018-02-19T12:52:00.047Z,50.00
2018-02-19T12:54:28.472Z,50.50
2018-02-19T12:56:56.847Z,50.00
2018-02-19T12:59:25.144Z,49.50
2018-02-19T13:01:53.470Z,50.50
2018-02-19T13:04:21.754Z,50.20
2018-02-19T13:06:50.108Z,49.80
2018-02-19T13:09:19.273Z,50.40
2018-02-19T13:11:47.659Z,50.40
2018-02-19T13:14:15.970Z,50.50
2018-02-19T13:16:44.291Z,49.40
2018-02-19T13:19:12.622Z,50.00
2018-02-19T13:21:40.915Z,50.00
2018-02-19T13:24:09.246Z,48.90
2018-02-19T13:26:38.347Z,50.20
2018-02-19T13:29:06.671Z,50.20
2018-02-19T13:31:36.054Z,49.50
2018-02-19T13:34:04.452Z,49.50
2018-02-19T13:36:32.995Z,49.80
2018-02-19T13:39:01.737Z,50.40
2018-02-19T13:41:30.171Z,50.50
2018-02-19T13:43:58.528Z,50.20
2018-02-19T13:46:26.855Z,50.30
2018-02-19T13:48:55.147Z,50.60
2018-02-19T13:51:23.725Z,49.70
2018-02-19T13:53:52.786Z,51.30
2018-02-19T13:56:21.080Z,51.20
2018-02-19T13:58:49.603Z,51.30
2018-02-19T14:01:17.939Z,51.30
2018-02-19T14:03:46.328Z,51.40
2018-02-19T14:06:14.620Z,51.50
2018-02-19T14:08:42.906Z,49.70
2018-02-19T14:11:11.236Z,50.90
2018-02-19T14:13:39.562Z,51.60
2018-02-19T14:16:07.891Z,51.00
2018-02-19T14:18:36.179Z,51.00
2018-02-19T14:21:05.270Z,51.00
2018-02-19T14:23:33.645Z,50.90
2018-02-19T14:26:03.011Z,50.50
2018-02-19T14:28:31.536Z,50.40
2018-02-19T14:31:01.648Z,50.90
2018-02-19T14:33:30.129Z,50.80
2018-02-19T14:35:58.463Z,51.80
2018-02-19T14:38:27.627Z,50.90
2018-02-19T14:40:55.966Z,50.90
2018-02-19T14:43:24.485Z,51.30
2018-02-19T14:45:52.778Z,51.40
2018-02-19T14:48:21.062Z,51.10
2018-02-19T14:50:49.442Z,51.20
2018-02-19T14:53:18.818Z,51.80
2018-02-19T14:55:47.159Z,51.80
2018-02-19T14:58:16.214Z,52.60
2018-02-19T15:00:44.546Z,52.60
2018-02-19T15:03:12.835Z,52.80
2018-02-19T15:05:41.890Z,53.00
2018-02-19T15:08:11.003Z,52.60
2018-02-19T15:10:39.401Z,52.60
2018-02-19T15:13:07.685Z,53.80
2018-02-19T15:15:36.062Z,53.30
2018-02-19T15:18:04.563Z,52.60
2018-02-19T15:20:33.034Z,52.80
2018-02-19T15:23:01.798Z,53.30
2018-02-19T15:25:30.191Z,53.10
2018-02-19T15:27:58.547Z,54.10
2018-02-19T15:30:27.632Z,54.40
2018-02-19T15:32:55.963Z,54.30
2018-02-19T15:35:24.458Z,54.30
2018-02-19T15:37:52.747Z,54.90
2018-02-19T15:40:21.103Z,55.60
2018-02-19T15:42:49.590Z,56.30
2018-02-19T15:45:18.750Z,56.30
2018-02-19T15:47:47.176Z,56.20
2018-02-19T15:50:15.474Z,56.10
2018-02-19T15:52:43.790Z,56.10
2018-02-19T15:55:12.079Z,56.40
2018-02-19T15:57:40.412Z,57.20
2018-02-19T16:00:08.747Z,57.60
2018-02-19T16:02:37.074Z,58.10
2018-02-19T16:05:05.415Z,58.50
2018-02-19T16:07:33.957Z,59.10
2018-02-19T16:10:03.359Z,59.50
2018-02-19T16:12:32.568Z,59.90
2018-02-19T16:15:01.215Z,59.80
2018-02-19T16:17:29.882Z,60.00
2018-02-19T16:19:59.011Z,60.80
2018-02-19T16:22:27.371Z,60.70
2018-02-19T16:24:55.699Z,60.70
2018-02-19T16:27:23.992Z,60.50
2018-02-19T16:29:52.336Z,60.50
2018-02-19T16:32:20.779Z,61.70
2018-02-19T16:34:49.617Z,61.60
2018-02-19T16:37:17.930Z,61.60
2018-02-19T16:39:46.236Z,62.10
2018-02-19T16:42:14.559Z,62.60
2018-02-19T16:44:42.856Z,62.80
2018-02-19T16:47:11.239Z,62.90
2018-02-19T16:49:39.534Z,63.20
2018-02-19T16:52:07.862Z,63.30
2018-02-19T16:54:36.150Z,63.50
2018-02-19T16:57:04.598Z,62.10
2018-02-19T16:59:33.114Z,62.90
2018-02-19T17:02:01.912Z,63.30
2018-02-19T17:04:31.385Z,63.50
2018-02-19T17:06:59.807Z,64.60
2018-02-19T17:09:28.092Z,64.50
2018-02-19T17:11:56.418Z,64.60
2018-02-19T17:14:24.750Z,64.80
2018-02-19T17:16:53.827Z,64.20
2018-02-19T17:19:22.148Z,64.10
2018-02-19T17:21:50.694Z,63.90
2018-02-19T17:24:19.850Z,62.30
2018-02-19T17:26:48.419Z,62.20
2018-02-19T17:29:16.814Z,62.50
2018-02-19T17:31:45.906Z,62.50
2018-02-19T17:34:14.238Z,62.50
2018-02-19T17:36:43.307Z,63.30
2018-02-19T17:39:11.634Z,63.30
2018-02-19T17:41:39.919Z,64.30
2018-02-19T17:44:08.242Z,64.80
2018-02-19T17:46:36.671Z,65.90
2018-02-19T17:49:05.846Z,66.50
2018-02-19T17:51:34.254Z,66.50
2018-02-19T17:54:03.991Z,67.90
2018-02-19T17:56:32.737Z,67.80
2018-02-19T17:59:01.391Z,68.50
2018-02-19T18:01:30.020Z,68.50
2018-02-19T18:03:58.528Z,67.90
2018-02-19T18:06:27.039Z,68.30
2018-02-19T18:08:56.324Z,68.50
2018-02-19T18:11:24.655Z,68.50
2018-02-19T18:13:52.950Z,68.60
2018-02-19T18:16:21.355Z,69.00
2018-02-19T18:18:49.747Z,69.20
2018-02-19T18:21:18.087Z,68.50
2018-02-19T18:23:47.228Z,67.80
2018-02-19T18:26:16.298Z,68.20
2018-02-19T18:28:44.634Z,68.20
2018-02-19T18:31:13.032Z,66.80
2018-02-19T18:33:41.326Z,67.00
2018-02-19T18:36:09.668Z,66.30
2018-02-19T18:38:38.731Z,66.40
2018-02-19T18:41:07.134Z,66.40
2018-02-19T18:43:35.759Z,66.70
2018-02-19T18:46:04.552Z,66.80
2018-02-19T18:48:33.163Z,67.90
2018-02-19T18:51:01.871Z,67.40
2018-02-19T18:53:31.590Z,67.40
2018-02-19T18:55:59.986Z,67.40
2018-02-19T18:58:28.363Z,67.80
2018-02-19T19:00:56.724Z,68.50
2018-02-19T19:03:25.056Z,68.40
2018-02-19T19:05:53.395Z,68.90
2018-02-19T19:08:33.783Z,69.10
2018-02-19T19:11:02.193Z,69.10
2018-02-19T19:13:30.627Z,70.50
2018-02-19T19:15:59.816Z,71.80
2018-02-19T19:18:28.127Z,71.80
2018-02-19T19:20:56.427Z,71.20
2018-02-19T19:23:24.762Z,71.10
2018-02-19T19:25:53.059Z,71.70
2018-02-19T19:28:21.479Z,72.30
2018-02-19T19:30:50.075Z,71.80
2018-02-19T19:33:18.524Z,71.80
2018-02-19T19:35:47.595Z,72.00
2018-02-19T19:38:15.926Z,72.00
2018-02-19T19:40:44.272Z,71.90
2018-02-19T19:43:12.566Z,71.70
2018-02-19T19:45:40.864Z,71.10
2018-02-19T19:48:09.970Z,71.10
2018-02-19T19:50:39.047Z,70.30
2018-02-19T19:53:07.427Z,70.30
2018-02-19T19:55:35.827Z,70.70
2018-02-19T19:58:04.235Z,70.80
2018-02-19T20:00:32.730Z,69.60
2018-02-19T20:03:01.617Z,68.80
2018-02-19T20:05:30.417Z,68.40
2018-02-19T20:07:59.334Z,68.60
2018-02-19T20:10:27.690Z,70.50
2018-02-19T20:12:56.009Z,71.40
2018-02-19T20:15:24.372Z,71.60
2018-02-19T20:17:53.445Z,69.30
2018-02-19T20:20:21.782Z,69.20
2018-02-19T20:22:50.099Z,68.80
2018-02-19T20:25:19.496Z,70.10
2018-02-19T20:27:48.846Z,69.40
2018-02-19T20:30:17.986Z,68.90
2018-02-19T20:32:47.082Z,69.40
2018-02-19T20:37:50.122Z,68.80
2018-02-19T20:40:18.981Z,68.00
2018-02-19T20:42:48.063Z,67.40
2018-02-19T20:45:16.387Z,67.40
2018-02-19T20:47:44.707Z,68.00
2018-02-19T20:50:13.011Z,69.00
2018-02-19T20:52:41.342Z,69.40
2018-02-19T20:55:09.698Z,68.60
2018-02-19T20:57:38.178Z,68.20
2018-02-19T21:00:06.538Z,67.80
2018-02-19T21:02:35.177Z,67.60
2018-02-19T21:05:03.587Z,68.50
2018-02-19T21:07:32.417Z,67.50
2018-02-19T21:10:01.183Z,67.10
2018-02-19T21:12:29.623Z,65.90
2018-02-19T21:14:57.931Z,66.70
2018-02-19T21:17:27.059Z,67.00
2018-02-19T21:19:55.358Z,67.00
2018-02-19T21:22:23.707Z,67.10
2018-02-19T21:24:52.040Z,66.30
2018-02-19T21:27:20.339Z,67.30
2018-02-19T21:29:48.731Z,66.50
2018-02-19T21:32:17.075Z,66.80
2018-02-19T21:34:45.376Z,65.60
2018-02-19T21:37:13.709Z,65.80
2018-02-19T21:39:42.993Z,66.20
2018-02-19T21:42:11.287Z,66.10
2018-02-19T21:44:39.582Z,67.20
2018-02-19T21:47:07.924Z,66.40
2018-02-19T21:49:36.986Z,67.80
2018-02-19T21:52:05.500Z,67.40
2018-02-19T21:54:34.135Z,67.40
2018-02-19T21:57:02.586Z,68.20
2018-02-19T21:59:31.340Z,69.20
2018-02-19T22:02:00.533Z,68.80
2018-02-19T22:04:28.932Z,68.80
2018-02-19T22:06:57.271Z,69.00
2018-02-19T22:09:25.599Z,68.20
2018-02-19T22:11:54.798Z,68.70
2018-02-19T22:14:23.207Z,68.60
2018-02-19T22:16:51.506Z,68.10
2018-02-19T22:19:19.827Z,68.00
2018-02-19T22:21:48.971Z,69.00
2018-02-19T22:24:18.251Z,69.50
2018-02-19T22:26:46.578Z,69.50
2018-02-19T22:29:14.914Z,70.00
2018-02-19T22:31:43.237Z,70.70
2018-02-19T22:34:11.568Z,71.70
2018-02-19T22:36:39.905Z,72.00
2018-02-19T22:39:08.958Z,71.40
2018-02-19T22:41:37.270Z,71.40
2018-02-19T22:44:05.890Z,71.20
2018-02-19T22:46:34.370Z,71.20
2018-02-19T22:49:02.905Z,71.30
2018-02-19T22:51:31.300Z,71.30
2018-02-19T22:53:59.824Z,71.40
2018-02-19T22:56:28.218Z,72.40
2018-02-19T22:58:56.630Z,71.90
2018-02-19T23:01:25.022Z,72.00
2018-02-19T23:03:53.330Z,72.20
2018-02-19T23:06:21.789Z,72.30
2018-02-19T23:08:50.202Z,72.50
2018-02-19T23:11:18.551Z,72.50
2018-02-19T23:13:47.793Z,72.40
2018-02-19T23:16:16.095Z,72.20
2018-02-19T23:18:44.422Z,72.90
2018-02-19T23:21:12.749Z,72.70
2018-02-19T23:23:41.085Z,73.10
2018-02-19T23:26:09.430Z,73.30
2018-02-19T23:28:38.492Z,73.40
2018-02-19T23:31:06.824Z,73.30
2018-02-19T23:33:35.610Z,73.50
2018-02-19T23:36:04.868Z,72.90
2018-02-19T23:38:33.316Z,72.90
2018-02-19T23:41:01.746Z,72.60
2018-02-19T23:43:30.523Z,72.40
2018-02-19T23:45:59.081Z,72.30
2018-02-19T23:48:27.563Z,72.30
2018-02-19T23:50:55.908Z,72.00
2018-02-19T23:53:25.002Z,73.00
2018-02-19T23:55:53.339Z,73.00
2018-02-19T23:58:22.402Z,74.00
